Terminal Aerodrome Forecast
Issued by NWS

Home | Current Version | Previous Version | Text Only | Print | Product List | Glossary On
Versions: 1 2 3 4 5 6 7 8 9 10 11 12 13 14 15 16 17 18 19 20 21 22
000
FTUS41 KBTV 221046 AAA
TAFSLK
TAF AMD
KSLK 221046Z 2211/2306 00000KT P6SM SCT010
      TEMPO 2211/2213 OVC010
     FM221300 15006KT P6SM OVC020
     FM230200 15005KT P6SM VCSH SCT007 OVC015=

USA.gov is the U.S. government's official web portal to all federal, state and local government web resources and services.